Tuesday, October 21, 2014
16:50 UTC
  |  Log In   |  Register Free
Airport Search:

John F Kennedy Memorial Airport
(KASX)

John F Kennedy Memorial Airport Diagram
No Airport Diagram Available

FAA data valid effective September 18, 2014 - November 13, 2014 (unless otherwise noted).

 
 
 
 
 
 
 
 
 
 
 
 
 
 

Current Aviation Weather for John F Kennedy Memorial Airport (KASX)

The most recent METAR observation for KASX was updated at: 1609
METAR Summary (Translated METAR)
KASX
211553Z AUTO 08007KT 10SM OVC019 06/02 A3028 RMK AO2 SLP260 T00610017
KIWD
211555Z AUTO 10008KT 10SM OVC017 04/01 A3024 RMK AO1
(32.5 nm SE from KASX)
KHYR
211553Z AUTO 12008KT 10SM OVC019 07/01 A3025 RMK AO2 SLP252 T00670011
(38.2 nm SW from KASX)
TAF Summary (Translated TAF)
KIWD
(32.5 nm SE from KASX)
211123Z 2112/2212 03004KT P6SM BKN018 FM211500 05007KT P6SM BKN025 FM211800 10007KT P6SM SCT035 FM220000 15005KT P6SM SKC AMD LTD TO CLD VIS AND WIND
KHYR
(38.2 nm SW from KASX)
211610Z 2116/2212 12008KT P6SM OVC019 FM211900 12009KT P6SM SCT019 FM220500 15005KT P6SM SKC
  Airport Weather Conditions for KASX

 Current Weather at ASX
43° F
Overcast
East winds at 8.1 mph
ASX NOAA Radar

Pressure: 30.28 in
Humidity: 74%
Wind: East at 8.1 MPH (7 KT)
Dew Point: 35.1°F
Visibility: 10.00 mi


Airport Weather Forecast for KASX

Translated METAR and TAF for KASX
Translated METAR for KASX (1645 UTC 21 October 2014)
found at http://aviationweather.gov/adds/metars/
 
METAR text: KASX 211553Z AUTO 08007KT 10SM OVC019 06/02 A3028 RMK AO2 SLP260 T00610017
Conditions at: KASX (ASHLAND , WI, US) observed 1553 UTC 21 October 2014
Temperature: 6.1°C (43°F)
Dewpoint: 1.7°C (35°F) [RH = 73%]
Pressure (altimeter): 30.28 inches Hg (1025.5 mb)
[Sea-level pressure: 1026.0 mb]
Winds: from the E (80 degrees) at 8 MPH (7 knots; 3.6 m/s)
Visibility: 10 or more miles (16+ km)
Ceiling: 1900 feet AGL
Clouds: overcast cloud deck at 1900 feet AGL
Weather: automated observation with no human augmentation;
there may or may not be significant weather present at this time
Translated TAF for KASX

There is no translated TAF available for this airport

Find All Airport Services Find A Hotel Find A Rental Car Find A Golf Course Find A Restaurant $100 Hamburger



FBO's on the Field
FBO Company Facility Photos Services Transportation Aviation Fuel Prices: Prices include tax
Catering Weather Repair Courtesy Rental Type 100LL JetA JetA+ MOGAS 8087
 
John F Kennedy Memorial Airport

This FBO has not yet been rated
FS: Phillips 66
Last Updated: Oct-14
Login to update fuel prices
SS:
Contact John F Kennedy Memorial AirportMore FBO Information
 
Add another FBO Facility Photos Catering Weather Repair Courtesy Rental Type 100LL JetA JetA+ MOGAS 8087
Services Transportation Aviation Fuel Prices: Prices include tax


model-print
model-print
model-print
model-print